sensor_id;sensor_type;location;lat;lon;timestamp;pressure;altitude;pressure_sealevel;temperature;humidity
42067;BME280;27734;47.028;28.820;2022-12-31T00:00:19;101361.30;;;1.65;78.21
42067;BME280;27734;47.028;28.820;2022-12-31T00:03:10;101362.98;;;1.65;78.24
42067;BME280;27734;47.028;28.820;2022-12-31T00:05:41;101366.59;;;1.67;78.48
42067;BME280;27734;47.028;28.820;2022-12-31T00:08:13;101365.84;;;1.68;78.28
42067;BME280;27734;47.028;28.820;2022-12-31T00:10:44;101366.73;;;1.68;78.04
42067;BME280;27734;47.028;28.820;2022-12-31T00:13:15;101375.30;;;1.67;77.99
42067;BME280;27734;47.028;28.820;2022-12-31T00:15:47;101379.41;;;1.65;78.30
42067;BME280;27734;47.028;28.820;2022-12-31T00:18:18;101373.61;;;1.57;78.52
42067;BME280;27734;47.028;28.820;2022-12-31T00:20:49;101380.84;;;1.51;78.64
42067;BME280;27734;47.028;28.820;2022-12-31T00:23:20;101385.88;;;1.50;78.27
42067;BME280;27734;47.028;28.820;2022-12-31T00:25:52;101392.84;;;1.51;78.14
42067;BME280;27734;47.028;28.820;2022-12-31T00:28:23;101392.58;;;1.48;78.24
42067;BME280;27734;47.028;28.820;2022-12-31T00:30:54;101388.70;;;1.42;78.25
42067;BME280;27734;47.028;28.820;2022-12-31T00:33:25;101392.98;;;1.42;78.46
42067;BME280;27734;47.028;28.820;2022-12-31T00:36:04;101385.98;;;1.41;78.55
42067;BME280;27734;47.028;28.820;2022-12-31T00:38:37;101388.57;;;1.41;78.62
42067;BME280;27734;47.028;28.820;2022-12-31T00:41:08;101397.22;;;1.41;78.35
42067;BME280;27734;47.028;28.820;2022-12-31T00:43:40;101394.64;;;1.41;78.66
42067;BME280;27734;47.028;28.820;2022-12-31T00:46:12;101391.16;;;1.41;78.42
42067;BME280;27734;47.028;28.820;2022-12-31T00:48:44;101398.78;;;1.39;78.30
42067;BME280;27734;47.028;28.820;2022-12-31T00:51:18;101409.00;;;1.38;78.74
42067;BME280;27734;47.028;28.820;2022-12-31T00:53:49;101412.87;;;1.33;78.61
42067;BME280;27734;47.028;28.820;2022-12-31T00:56:22;101415.32;;;1.31;78.62
42067;BME280;27734;47.028;28.820;2022-12-31T00:58:54;101417.11;;;1.32;78.92
42067;BME280;27734;47.028;28.820;2022-12-31T01:01:27;101424.47;;;1.28;78.83
42067;BME280;27734;47.028;28.820;2022-12-31T01:04:01;101424.33;;;1.26;78.53
42067;BME280;27734;47.028;28.820;2022-12-31T01:06:32;101421.61;;;1.24;79.41
42067;BME280;27734;47.028;28.820;2022-12-31T01:09:03;101412.20;;;1.25;78.62
42067;BME280;27734;47.028;28.820;2022-12-31T01:11:35;101413.09;;;1.25;79.18
42067;BME280;27734;47.028;28.820;2022-12-31T01:14:09;101413.59;;;1.21;79.14
42067;BME280;27734;47.028;28.820;2022-12-31T01:16:43;101417.59;;;1.18;79.22
42067;BME280;27734;47.028;28.820;2022-12-31T01:19:18;101418.48;;;1.18;78.72
42067;BME280;27734;47.028;28.820;2022-12-31T01:21:51;101413.45;;;1.20;79.24
42067;BME280;27734;47.028;28.820;2022-12-31T01:24:22;101409.08;;;1.19;79.18
42067;BME280;27734;47.028;28.820;2022-12-31T01:26:54;101408.14;;;1.18;78.92
42067;BME280;27734;47.028;28.820;2022-12-31T01:29:26;101404.66;;;1.18;78.88
42067;BME280;27734;47.028;28.820;2022-12-31T01:31:58;101410.46;;;1.15;79.31
42067;BME280;27734;47.028;28.820;2022-12-31T01:34:29;101414.73;;;1.15;79.14
42067;BME280;27734;47.028;28.820;2022-12-31T01:37:01;101422.49;;;1.15;79.34
42067;BME280;27734;47.028;28.820;2022-12-31T01:39:32;101419.02;;;1.14;78.91
42067;BME280;27734;47.028;28.820;2022-12-31T01:42:03;101414.33;;;1.10;78.99
42067;BME280;27734;47.028;28.820;2022-12-31T01:44:53;101415.23;;;1.11;79.44
42067;BME280;27734;47.028;28.820;2022-12-31T01:47:34;101413.44;;;1.10;79.07
42067;BME280;27734;47.028;28.820;2022-12-31T01:50:13;101403.99;;;1.10;79.13
42067;BME280;27734;47.028;28.820;2022-12-31T01:52:48;101398.82;;;1.10;79.10
42067;BME280;27734;47.028;28.820;2022-12-31T01:55:25;101406.44;;;1.08;79.29
42067;BME280;27734;47.028;28.820;2022-12-31T01:58:00;101413.66;;;1.02;79.87
42067;BME280;27734;47.028;28.820;2022-12-31T02:00:33;101421.00;;;0.98;79.60
42067;BME280;27734;47.028;28.820;2022-12-31T02:03:05;101421.11;;;0.89;80.15
42067;BME280;27734;47.028;28.820;2022-12-31T02:05:40;101424.39;;;0.78;80.30
42067;BME280;27734;47.028;28.820;2022-12-31T02:08:14;101433.14;;;0.69;79.53
42067;BME280;27734;47.028;28.820;2022-12-31T02:10:45;101437.27;;;0.67;79.75
42067;BME280;27734;47.028;28.820;2022-12-31T02:13:17;101432.86;;;0.66;79.62
42067;BME280;27734;47.028;28.820;2022-12-31T02:15:53;101442.44;;;0.67;79.68
42067;BME280;27734;47.028;28.820;2022-12-31T02:18:32;101431.96;;;0.66;79.59
42067;BME280;27734;47.028;28.820;2022-12-31T02:27:14;101433.00;;;0.68;79.55
42067;BME280;27734;47.028;28.820;2022-12-31T02:30:12;101440.89;;;0.69;79.75
42067;BME280;27734;47.028;28.820;2022-12-31T02:32:52;101435.72;;;0.69;79.74
42067;BME280;27734;47.028;28.820;2022-12-31T02:35:31;101443.47;;;0.69;79.56
42067;BME280;27734;47.028;28.820;2022-12-31T02:38:07;101443.33;;;0.68;79.54
42067;BME280;27734;47.028;28.820;2022-12-31T02:40:40;101443.19;;;0.66;79.88
42067;BME280;27734;47.028;28.820;2022-12-31T02:43:11;101439.58;;;0.64;79.80
42067;BME280;27734;47.028;28.820;2022-12-31T02:45:45;101438.50;;;0.62;79.35
42067;BME280;27734;47.028;28.820;2022-12-31T02:48:34;101434.89;;;0.60;79.51
42067;BME280;27734;47.028;28.820;2022-12-31T02:51:23;101438.09;;;0.58;79.87
42067;BME280;27734;47.028;28.820;2022-12-31T02:54:13;101439.02;;;0.58;79.67
42067;BME280;27734;47.028;28.820;2022-12-31T02:57:01;101433.06;;;0.59;79.94
42067;BME280;27734;47.028;28.820;2022-12-31T02:59:39;101440.19;;;0.62;80.21
42067;BME280;27734;47.028;28.820;2022-12-31T03:02:31;101448.08;;;0.63;79.86
42067;BME280;27734;47.028;28.820;2022-12-31T03:05:04;101447.94;;;0.62;79.76
42067;BME280;27734;47.028;28.820;2022-12-31T03:07:38;101445.98;;;0.59;79.87
42067;BME280;27734;47.028;28.820;2022-12-31T03:10:10;101438.09;;;0.58;79.71
42067;BME280;27734;47.028;28.820;2022-12-31T03:12:43;101437.81;;;0.54;80.02
42067;BME280;27734;47.028;28.820;2022-12-31T03:15:19;101449.69;;;0.52;80.12
42067;BME280;27734;47.028;28.820;2022-12-31T03:17:57;101449.55;;;0.51;80.45
42067;BME280;27734;47.028;28.820;2022-12-31T03:20:32;101450.58;;;0.53;80.09
42067;BME280;27734;47.028;28.820;2022-12-31T03:23:25;101449.55;;;0.51;79.77
42067;BME280;27734;47.028;28.820;2022-12-31T03:25:57;101447.11;;;0.52;80.10
42067;BME280;27734;47.028;28.820;2022-12-31T03:28:30;101458.33;;;0.53;79.89
42067;BME280;27734;47.028;28.820;2022-12-31T03:31:02;101458.23;;;0.51;80.09
42067;BME280;27734;47.028;28.820;2022-12-31T03:33:37;101458.98;;;0.50;80.22
42067;BME280;27734;47.028;28.820;2022-12-31T03:36:12;101458.33;;;0.53;80.13
42067;BME280;27734;47.028;28.820;2022-12-31T03:38:43;101462.60;;;0.52;80.18
42067;BME280;27734;47.028;28.820;2022-12-31T03:41:15;101462.60;;;0.52;80.12
42067;BME280;27734;47.028;28.820;2022-12-31T03:43:46;101458.23;;;0.51;80.23
42067;BME280;27734;47.028;28.820;2022-12-31T03:46:17;101453.95;;;0.52;80.04
42067;BME280;27734;47.028;28.820;2022-12-31T03:48:48;101465.05;;;0.51;80.21
42067;BME280;27734;47.028;28.820;2022-12-31T03:51:19;101469.17;;;0.49;80.52
42067;BME280;27734;47.028;28.820;2022-12-31T03:53:51;101464.63;;;0.46;80.16
42067;BME280;27734;47.028;28.820;2022-12-31T03:56:22;101464.48;;;0.45;79.86
42067;BME280;27734;47.028;28.820;2022-12-31T03:58:54;101465.41;;;0.45;80.45
42067;BME280;27734;47.028;28.820;2022-12-31T04:01:25;101466.31;;;0.46;80.79
42067;BME280;27734;47.028;28.820;2022-12-31T04:03:57;101466.03;;;0.43;80.27
42067;BME280;27734;47.028;28.820;2022-12-31T04:06:28;101480.20;;;0.38;80.17
42067;BME280;27734;47.028;28.820;2022-12-31T04:09:00;101477.05;;;0.31;80.36
42067;BME280;27734;47.028;28.820;2022-12-31T04:11:31;101491.19;;;0.26;80.38
42067;BME280;27734;47.028;28.820;2022-12-31T04:14:03;101483.16;;;0.23;80.53
42067;BME280;27734;47.028;28.820;2022-12-31T04:16:34;101483.80;;;0.21;80.80
42067;BME280;27734;47.028;28.820;2022-12-31T04:19:06;101488.03;;;0.20;80.16
42067;BME280;27734;47.028;28.820;2022-12-31T04:21:37;101488.33;;;0.23;80.40
42067;BME280;27734;47.028;28.820;2022-12-31T04:24:08;101499.44;;;0.22;80.92
42067;BME280;27734;47.028;28.820;2022-12-31T04:26:40;101499.30;;;0.21;81.12
42067;BME280;27734;47.028;28.820;2022-12-31T04:29:12;101494.88;;;0.20;80.81
42067;BME280;27734;47.028;28.820;2022-12-31T04:31:43;101496.71;;;0.21;81.19
42067;BME280;27734;47.028;28.820;2022-12-31T04:34:15;101505.64;;;0.24;81.08
42067;BME280;27734;47.028;28.820;2022-12-31T04:36:46;101516.86;;;0.25;81.19
42067;BME280;27734;47.028;28.820;2022-12-31T04:39:17;101509.26;;;0.26;81.20
42067;BME280;27734;47.028;28.820;2022-12-31T04:41:48;101507.75;;;0.28;80.78
42067;BME280;27734;47.028;28.820;2022-12-31T04:44:20;101512.27;;;0.31;81.04
42067;BME280;27734;47.028;28.820;2022-12-31T04:46:51;101519.27;;;0.32;80.80
42067;BME280;27734;47.028;28.820;2022-12-31T04:49:23;101512.13;;;0.29;80.58
42067;BME280;27734;47.028;28.820;2022-12-31T04:51:55;101513.67;;;0.27;80.83
42067;BME280;27734;47.028;28.820;2022-12-31T04:54:26;101518.69;;;0.26;80.79
42067;BME280;27734;47.028;28.820;2022-12-31T04:56:57;101524.61;;;0.25;80.61
42067;BME280;27734;47.028;28.820;2022-12-31T04:59:28;101522.95;;;0.25;81.17
42067;BME280;27734;47.028;28.820;2022-12-31T05:02:00;101534.79;;;0.23;81.16
42067;BME280;27734;47.028;28.820;2022-12-31T05:04:31;101537.08;;;0.20;81.34
42067;BME280;27734;47.028;28.820;2022-12-31T05:07:02;101530.12;;;0.19;81.17
42067;BME280;27734;47.028;28.820;2022-12-31T05:09:33;101534.50;;;0.20;80.66
42067;BME280;27734;47.028;28.820;2022-12-31T05:12:05;101526.14;;;0.23;81.47
42067;BME280;27734;47.028;28.820;2022-12-31T05:14:36;101519.44;;;0.25;80.85
42067;BME280;27734;47.028;28.820;2022-12-31T05:17:08;101526.44;;;0.26;81.41
42067;BME280;27734;47.028;28.820;2022-12-31T05:19:39;101527.19;;;0.25;81.47
42067;BME280;27734;47.028;28.820;2022-12-31T05:22:10;101535.08;;;0.26;81.06
42067;BME280;27734;47.028;28.820;2022-12-31T05:25:00;101547.98;;;0.26;80.87
42067;BME280;27734;47.028;28.820;2022-12-31T05:27:32;101560.00;;;0.26;81.26
42067;BME280;27734;47.028;28.820;2022-12-31T05:30:04;101555.73;;;0.26;81.12
42067;BME280;27734;47.028;28.820;2022-12-31T05:32:36;101563.47;;;0.26;81.16
42067;BME280;27734;47.028;28.820;2022-12-31T05:35:09;101557.88;;;0.22;81.41
42067;BME280;27734;47.028;28.820;2022-12-31T05:37:40;101558.52;;;0.19;81.58
42067;BME280;27734;47.028;28.820;2022-12-31T05:40:12;101555.80;;;0.17;81.93
42067;BME280;27734;47.028;28.820;2022-12-31T05:42:43;101552.78;;;0.13;81.29
42067;BME280;27734;47.028;28.820;2022-12-31T05:45:14;101557.97;;;0.04;81.22
42067;BME280;27734;47.028;28.820;2022-12-31T05:47:48;101561.36;;;-0.06;81.39
42067;BME280;27734;47.028;28.820;2022-12-31T05:50:19;101561.97;;;-0.08;81.04
42067;BME280;27734;47.028;28.820;2022-12-31T05:52:54;101558.48;;;-0.09;81.17
42067;BME280;27734;47.028;28.820;2022-12-31T05:55:25;101563.36;;;-0.12;81.06
42067;BME280;27734;47.028;28.820;2022-12-31T05:57:57;101566.54;;;-0.14;81.04
42067;BME280;27734;47.028;28.820;2022-12-31T06:00:28;101573.38;;;-0.15;80.95
42067;BME280;27734;47.028;28.820;2022-12-31T06:02:59;101577.01;;;-0.13;81.59
42067;BME280;27734;47.028;28.820;2022-12-31T06:05:30;101578.09;;;-0.11;81.06
42067;BME280;27734;47.028;28.820;2022-12-31T06:08:02;101572.44;;;-0.07;81.62
42067;BME280;27734;47.028;28.820;2022-12-31T06:10:33;101586.70;;;-0.02;81.41
42067;BME280;27734;47.028;28.820;2022-12-31T06:13:04;101592.13;;;0.02;81.25
42067;BME280;27734;47.028;28.820;2022-12-31T06:15:37;101589.84;;;0.05;80.89
42067;BME280;27734;47.028;28.820;2022-12-31T06:18:09;101598.80;;;0.08;81.46
42067;BME280;27734;47.028;28.820;2022-12-31T06:20:40;101598.95;;;0.10;81.46
42067;BME280;27734;47.028;28.820;2022-12-31T06:23:11;101603.33;;;0.11;81.11
42067;BME280;27734;47.028;28.820;2022-12-31T06:25:42;101595.87;;;0.14;81.58
42067;BME280;27734;47.028;28.820;2022-12-31T06:28:14;101601.33;;;0.17;81.83
42067;BME280;27734;47.028;28.820;2022-12-31T06:30:46;101613.02;;;0.22;81.75
42067;BME280;27734;47.028;28.820;2022-12-31T06:33:17;101610.88;;;0.27;81.64
42067;BME280;27734;47.028;28.820;2022-12-31T06:35:48;101610.81;;;0.35;81.73
42067;BME280;27734;47.028;28.820;2022-12-31T06:38:24;101608.81;;;0.42;81.95
42067;BME280;27734;47.028;28.820;2022-12-31T06:40:56;101616.67;;;0.52;81.76
42067;BME280;27734;47.028;28.820;2022-12-31T06:43:27;101618.28;;;0.60;81.83
42067;BME280;27734;47.028;28.820;2022-12-31T06:46:02;101614.73;;;0.68;81.75
42067;BME280;27734;47.028;28.820;2022-12-31T06:48:34;101605.90;;;0.75;81.62
42067;BME280;27734;47.028;28.820;2022-12-31T06:51:07;101614.83;;;0.79;81.56
42067;BME280;27734;47.028;28.820;2022-12-31T06:53:39;101611.63;;;0.81;81.72
42067;BME280;27734;47.028;28.820;2022-12-31T06:56:16;101614.00;;;0.88;81.67
42067;BME280;27734;47.028;28.820;2022-12-31T06:58:49;101613.95;;;0.97;81.97
42067;BME280;27734;47.028;28.820;2022-12-31T07:01:42;101617.23;;;1.05;81.76
42067;BME280;27734;47.028;28.820;2022-12-31T07:04:44;101622.83;;;1.10;81.72
42067;BME280;27734;47.028;28.820;2022-12-31T07:07:23;101618.41;;;1.08;81.71
42067;BME280;27734;47.028;28.820;2022-12-31T07:10:02;101615.35;;;1.13;81.99
42067;BME280;27734;47.028;28.820;2022-12-31T07:12:47;101616.81;;;1.19;81.69
42067;BME280;27734;47.028;28.820;2022-12-31T07:15:30;101619.95;;;1.25;81.99
42067;BME280;27734;47.028;28.820;2022-12-31T07:18:09;101622.48;;;1.34;81.92
42067;BME280;27734;47.028;28.820;2022-12-31T07:20:45;101634.28;;;1.41;82.02
42067;BME280;27734;47.028;28.820;2022-12-31T07:23:18;101617.48;;;1.46;81.86
42067;BME280;27734;47.028;28.820;2022-12-31T07:25:56;101623.48;;;1.55;81.77
42067;BME280;27734;47.028;28.820;2022-12-31T07:28:40;101623.55;;;1.66;82.30
42067;BME280;27734;47.028;28.820;2022-12-31T07:31:21;101623.44;;;1.74;81.96
42067;BME280;27734;47.028;28.820;2022-12-31T07:33:59;101623.23;;;1.82;81.87
42067;BME280;27734;47.028;28.820;2022-12-31T07:36:49;101626.09;;;1.85;82.04
42067;BME280;27734;47.028;28.820;2022-12-31T07:39:30;101630.39;;;1.94;81.76
42067;BME280;27734;47.028;28.820;2022-12-31T07:42:08;101622.76;;;1.96;81.76
42067;BME280;27734;47.028;28.820;2022-12-31T07:44:50;101629.55;;;2.04;82.09
42067;BME280;27734;47.028;28.820;2022-12-31T07:47:27;101632.41;;;2.18;82.22
42067;BME280;27734;47.028;28.820;2022-12-31T07:49:59;101629.86;;;2.28;81.60
42067;BME280;27734;47.028;28.820;2022-12-31T07:52:31;101632.59;;;2.40;82.26
42067;BME280;27734;47.028;28.820;2022-12-31T07:55:04;101622.39;;;2.51;82.31
42067;BME280;27734;47.028;28.820;2022-12-31T07:57:40;101620.98;;;2.65;82.40
42067;BME280;27734;47.028;28.820;2022-12-31T08:00:15;101617.61;;;2.77;82.30
42067;BME280;27734;47.028;28.820;2022-12-31T08:03:00;101606.45;;;2.88;82.71
42067;BME280;27734;47.028;28.820;2022-12-31T08:05:41;101598.04;;;3.01;83.00
42067;BME280;27734;47.028;28.820;2022-12-31T08:08:23;101604.38;;;3.15;82.66
42067;BME280;27734;47.028;28.820;2022-12-31T08:11:05;101601.11;;;3.28;82.31
42067;BME280;27734;47.028;28.820;2022-12-31T08:13:40;101596.00;;;3.39;82.25
42067;BME280;27734;47.028;28.820;2022-12-31T08:16:14;101597.93;;;3.52;82.86
42067;BME280;27734;47.028;28.820;2022-12-31T08:18:46;101603.06;;;3.63;82.19
42067;BME280;27734;47.028;28.820;2022-12-31T08:21:28;101601.47;;;3.75;82.87
42067;BME280;27734;47.028;28.820;2022-12-31T08:24:09;101606.07;;;3.89;82.52
42067;BME280;27734;47.028;28.820;2022-12-31T08:26:50;101607.05;;;4.02;82.46
42067;BME280;27734;47.028;28.820;2022-12-31T08:29:36;101604.66;;;4.15;83.13
42067;BME280;27734;47.028;28.820;2022-12-31T08:32:14;101597.72;;;4.26;82.30
42067;BME280;27734;47.028;28.820;2022-12-31T08:34:55;101600.91;;;4.34;82.37
42067;BME280;27734;47.028;28.820;2022-12-31T08:37:34;101597.75;;;4.38;82.58
42067;BME280;27734;47.028;28.820;2022-12-31T08:40:17;101615.16;;;4.39;81.77
42067;BME280;27734;47.028;28.820;2022-12-31T08:43:04;101599.69;;;4.40;81.75
42067;BME280;27734;47.028;28.820;2022-12-31T08:45:42;101610.45;;;4.45;81.58
42067;BME280;27734;47.028;28.820;2022-12-31T08:48:24;101603.66;;;4.47;81.32
42067;BME280;27734;47.028;28.820;2022-12-31T08:50:57;101605.73;;;4.51;81.96
42067;BME280;27734;47.028;28.820;2022-12-31T08:53:29;101604.38;;;4.56;81.40
42067;BME280;27734;47.028;28.820;2022-12-31T08:56:06;101591.86;;;4.62;81.75
42067;BME280;27734;47.028;28.820;2022-12-31T08:58:46;101583.88;;;4.71;81.87
42067;BME280;27734;47.028;28.820;2022-12-31T09:01:23;101573.24;;;4.80;81.46
42067;BME280;27734;47.028;28.820;2022-12-31T09:04:04;101570.68;;;4.92;82.08
42067;BME280;27734;47.028;28.820;2022-12-31T09:06:46;101569.67;;;5.01;81.42
42067;BME280;27734;47.028;28.820;2022-12-31T09:09:26;101572.30;;;5.13;82.05
42067;BME280;27734;47.028;28.820;2022-12-31T09:12:03;101569.59;;;5.24;81.93
42067;BME280;27734;47.028;28.820;2022-12-31T09:14:42;101567.76;;;5.34;81.95
42067;BME280;27734;47.028;28.820;2022-12-31T09:17:32;101568.44;;;5.44;81.86
42067;BME280;27734;47.028;28.820;2022-12-31T09:20:16;101566.73;;;5.56;81.89
42067;BME280;27734;47.028;28.820;2022-12-31T09:22:50;101558.70;;;5.65;82.16
42067;BME280;27734;47.028;28.820;2022-12-31T09:25:24;101568.89;;;5.73;81.77
42067;BME280;27734;47.028;28.820;2022-12-31T09:28:04;101562.52;;;5.82;81.61
42067;BME280;27734;47.028;28.820;2022-12-31T09:30:47;101556.83;;;5.87;81.33
42067;BME280;27734;47.028;28.820;2022-12-31T09:33:41;101540.20;;;5.97;81.76
42067;BME280;27734;47.028;28.820;2022-12-31T09:36:21;101539.14;;;6.07;81.67
42067;BME280;27734;47.028;28.820;2022-12-31T09:39:01;101536.41;;;6.17;81.97
42067;BME280;27734;47.028;28.820;2022-12-31T09:41:54;101524.91;;;6.27;81.96
42067;BME280;27734;47.028;28.820;2022-12-31T09:44:57;101510.01;;;6.38;81.85
42067;BME280;27734;47.028;28.820;2022-12-31T09:47:53;101510.74;;;6.48;81.95
42067;BME280;27734;47.028;28.820;2022-12-31T09:50:49;101492.30;;;6.59;81.96
42067;BME280;27734;47.028;28.820;2022-12-31T09:53:34;101482.59;;;6.70;81.96
42067;BME280;27734;47.028;28.820;2022-12-31T09:56:14;101479.80;;;6.80;82.19
42067;BME280;27734;47.028;28.820;2022-12-31T09:58:53;101478.70;;;6.90;81.94
42067;BME280;27734;47.028;28.820;2022-12-31T10:01:38;101468.87;;;6.99;81.88
42067;BME280;27734;47.028;28.820;2022-12-31T10:04:34;101474.69;;;7.08;81.67
42067;BME280;27734;47.028;28.820;2022-12-31T10:07:21;101473.27;;;7.13;81.41
42067;BME280;27734;47.028;28.820;2022-12-31T10:10:02;101469.28;;;7.18;81.39
42067;BME280;27734;47.028;28.820;2022-12-31T10:12:53;101470.47;;;7.24;81.47
42067;BME280;27734;47.028;28.820;2022-12-31T10:15:57;101479.59;;;7.30;81.28
42067;BME280;27734;47.028;28.820;2022-12-31T10:21:39;101482.10;;;7.42;81.07
42067;BME280;27734;47.028;28.820;2022-12-31T10:27:32;101478.55;;;7.55;81.26
42067;BME280;27734;47.028;28.820;2022-12-31T10:30:14;101483.38;;;7.62;81.11
42067;BME280;27734;47.028;28.820;2022-12-31T10:32:57;101489.88;;;7.69;81.04
42067;BME280;27734;47.028;28.820;2022-12-31T10:35:40;101495.39;;;7.73;81.34
42067;BME280;27734;47.028;28.820;2022-12-31T10:38:26;101486.22;;;7.80;80.70
42067;BME280;27734;47.028;28.820;2022-12-31T10:47:39;101475.19;;;7.99;80.77
42067;BME280;27734;47.028;28.820;2022-12-31T10:50:43;101464.83;;;8.01;80.52
42067;BME280;27734;47.028;28.820;2022-12-31T10:53:40;101461.00;;;8.09;81.19
42067;BME280;27734;47.028;28.820;2022-12-31T10:56:41;101468.39;;;8.16;81.24
42067;BME280;27734;47.028;28.820;2022-12-31T11:00:08;101469.78;;;8.24;81.10
42067;BME280;27734;47.028;28.820;2022-12-31T11:03:09;101462.49;;;8.34;81.13
42067;BME280;27734;47.028;28.820;2022-12-31T11:06:23;101465.62;;;8.43;80.99
42067;BME280;27734;47.028;28.820;2022-12-31T11:12:12;101459.56;;;8.57;81.08
42067;BME280;27734;47.028;28.820;2022-12-31T11:15:14;101460.63;;;8.61;81.18
42067;BME280;27734;47.028;28.820;2022-12-31T11:17:56;101447.82;;;8.66;81.25
42067;BME280;27734;47.028;28.820;2022-12-31T11:20:50;101444.58;;;8.70;81.24
42067;BME280;27734;47.028;28.820;2022-12-31T11:23:36;101436.61;;;8.83;81.23
42067;BME280;27734;47.028;28.820;2022-12-31T11:26:17;101433.90;;;8.96;80.83
42067;BME280;27734;47.028;28.820;2022-12-31T11:29:01;101431.62;;;9.03;81.10
42067;BME280;27734;47.028;28.820;2022-12-31T11:34:56;101425.19;;;9.12;81.35
42067;BME280;27734;47.028;28.820;2022-12-31T11:37:39;101430.05;;;9.21;81.47
42067;BME280;27734;47.028;28.820;2022-12-31T11:40:32;101437.41;;;9.28;81.06
42067;BME280;27734;47.028;28.820;2022-12-31T11:43:14;101440.46;;;9.36;81.31
42067;BME280;27734;47.028;28.820;2022-12-31T11:46:25;101438.19;;;9.42;80.83
42067;BME280;27734;47.028;28.820;2022-12-31T11:49:09;101435.81;;;9.47;80.43
42067;BME280;27734;47.028;28.820;2022-12-31T11:52:14;101430.66;;;9.48;81.24
42067;BME280;27734;47.028;28.820;2022-12-31T11:57:53;101411.27;;;9.61;80.49
42067;BME280;27734;47.028;28.820;2022-12-31T12:00:30;101412.35;;;9.65;80.96
42067;BME280;27734;47.028;28.820;2022-12-31T12:03:04;101402.12;;;9.69;80.27
42067;BME280;27734;47.028;28.820;2022-12-31T12:05:39;101404.23;;;9.77;79.90
42067;BME280;27734;47.028;28.820;2022-12-31T12:08:11;101408.02;;;9.82;79.95
42067;BME280;27734;47.028;28.820;2022-12-31T12:10:46;101409.07;;;9.85;79.99
42067;BME280;27734;47.028;28.820;2022-12-31T12:13:23;101405.56;;;9.85;80.23
42067;BME280;27734;47.028;28.820;2022-12-31T12:15:57;101406.45;;;9.85;79.94
42067;BME280;27734;47.028;28.820;2022-12-31T12:18:35;101404.72;;;9.86;79.73
42067;BME280;27734;47.028;28.820;2022-12-31T12:21:12;101408.34;;;9.88;80.28
42067;BME280;27734;47.028;28.820;2022-12-31T12:23:56;101400.48;;;9.88;80.06
42067;BME280;27734;47.028;28.820;2022-12-31T12:26:32;101397.02;;;9.89;80.04
42067;BME280;27734;47.028;28.820;2022-12-31T12:29:11;101396.20;;;9.90;80.09
42067;BME280;27734;47.028;28.820;2022-12-31T12:31:57;101401.53;;;9.92;80.16
42067;BME280;27734;47.028;28.820;2022-12-31T12:34:31;101399.72;;;9.90;80.04
42067;BME280;27734;47.028;28.820;2022-12-31T12:37:03;101395.56;;;9.94;79.87
42067;BME280;27734;47.028;28.820;2022-12-31T12:39:35;101408.75;;;9.96;79.42
42067;BME280;27734;47.028;28.820;2022-12-31T12:42:09;101406.13;;;9.96;79.52
42067;BME280;27734;47.028;28.820;2022-12-31T12:44:42;101410.45;;;9.95;79.86
42067;BME280;27734;47.028;28.820;2022-12-31T12:47:15;101410.45;;;9.95;79.68
42067;BME280;27734;47.028;28.820;2022-12-31T12:49:51;101415.69;;;9.95;79.49
42067;BME280;27734;47.028;28.820;2022-12-31T12:52:37;101411.30;;;9.94;79.21
42067;BME280;27734;47.028;28.820;2022-12-31T12:55:18;101412.91;;;9.92;79.05
42067;BME280;27734;47.028;28.820;2022-12-31T12:57:57;101417.09;;;9.88;78.99
42067;BME280;27734;47.028;28.820;2022-12-31T13:00:35;101411.77;;;9.87;78.76
42067;BME280;27734;47.028;28.820;2022-12-31T13:06:27;101409.31;;;9.90;78.73
42067;BME280;27734;47.028;28.820;2022-12-31T13:09:16;101414.40;;;9.87;78.75
42067;BME280;27734;47.028;28.820;2022-12-31T13:12:00;101415.97;;;9.83;78.95
42067;BME280;27734;47.028;28.820;2022-12-31T13:14:38;101413.27;;;9.82;78.66
42067;BME280;27734;47.028;28.820;2022-12-31T13:17:34;101412.17;;;9.78;78.60
42067;BME280;27734;47.028;28.820;2022-12-31T13:20:16;101419.87;;;9.75;78.84
42067;BME280;27734;47.028;28.820;2022-12-31T13:22:55;101420.55;;;9.71;78.88
42067;BME280;27734;47.028;28.820;2022-12-31T13:25:36;101421.19;;;9.67;78.55
42067;BME280;27734;47.028;28.820;2022-12-31T13:28:15;101426.34;;;9.65;78.89
42067;BME280;27734;47.028;28.820;2022-12-31T13:30:51;101439.36;;;9.64;78.97
42067;BME280;27734;47.028;28.820;2022-12-31T13:33:25;101427.83;;;9.60;78.37
42067;BME280;27734;47.028;28.820;2022-12-31T13:35:59;101435.52;;;9.57;78.40
42067;BME280;27734;47.028;28.820;2022-12-31T13:38:35;101431.00;;;9.54;78.65
42067;BME280;27734;47.028;28.820;2022-12-31T13:41:12;101429.94;;;9.51;78.35
42067;BME280;27734;47.028;28.820;2022-12-31T13:43:52;101427.16;;;9.48;78.36
42067;BME280;27734;47.028;28.820;2022-12-31T13:46:38;101431.33;;;9.44;78.33
42067;BME280;27734;47.028;28.820;2022-12-31T13:49:15;101431.08;;;9.40;78.17
42067;BME280;27734;47.028;28.820;2022-12-31T13:51:51;101443.16;;;9.38;78.22
42067;BME280;27734;47.028;28.820;2022-12-31T13:54:32;101446.37;;;9.32;78.88
42067;BME280;27734;47.028;28.820;2022-12-31T13:57:13;101447.89;;;9.28;78.10
42067;BME280;27734;47.028;28.820;2022-12-31T13:59:55;101449.36;;;9.23;78.71
42067;BME280;27734;47.028;28.820;2022-12-31T14:02:34;101449.81;;;9.16;78.18
42067;BME280;27734;47.028;28.820;2022-12-31T14:05:15;101456.44;;;9.09;78.23
42067;BME280;27734;47.028;28.820;2022-12-31T14:07:52;101460.52;;;9.04;78.75
42067;BME280;27734;47.028;28.820;2022-12-31T14:10:33;101472.41;;;8.99;78.06
42067;BME280;27734;47.028;28.820;2022-12-31T14:13:21;101469.56;;;8.94;78.76
42067;BME280;27734;47.028;28.820;2022-12-31T14:16:02;101471.08;;;8.91;78.47